Flight Track Log - Related Links

Times and Time Zones

All times are in EDT time to prevent confusion due to time zone crossing. See the FDX1347 flight status page for this flight to view local times or setup timezone preferences in your user account.

Time Position Orientation Groundspeed Altitude Reporting Facility
EDT Latitude Longitude Course Direction KTS MPH feet Rate Location/Type
Thu 09:58:58 PM 42.7256 -73.8053 202° Southwest 189 217 1,100  Level Boston Center
Thu 09:59:46 PM 42.6858 -73.8269 202° Southwest 206 237 3,000 2,267 Climbing Boston Center
Thu 10:01:13 PM 42.6967 -73.9600 276° West 286 329 6,200 2,466 Climbing Boston Center
Thu 10:02:12 PM 42.7117 -74.0678 281° West 297 342 9,000 2,311 Climbing Boston Center
Thu 10:07:45 PM 42.4630 -74.5990 281° West 297 342 21,300 2,000 Climbing FlightAware ADS-B
Thu 10:08:27 PM 42.4250 -74.6460 222° Southwest 297 342 21,500 156 Climbing FlightAware ADS-B
Thu 10:09:02 PM 42.3950 -74.6830 222° Southwest 297 342 21,500  Level FlightAware ADS-B
Thu 10:09:51 PM 42.3520 -74.7340 221° Southwest 297 342 21,500  Level FlightAware ADS-B
Thu 10:10:27 PM 42.3210 -74.7730 223° Southwest 297 342 21,500 1,738 Level FlightAware ADS-B
Thu 10:12:16 PM 42.1460 -75.0510 230° Southwest 439 505 25,700 1,973 Climbing FlightAware ADS-B
Thu 10:12:56 PM 42.1150 -75.1540 248° West 448 516 26,400 1,143 Climbing FlightAware ADS-B
Thu 10:13:40 PM 42.0780 -75.2680 246° West 455 524 27,300 1,159 Climbing FlightAware ADS-B
Thu 10:14:24 PM 42.0360 -75.3830 244° Southwest 462 532 28,100 1,200 Climbing FlightAware ADS-B
Thu 10:15:00 PM 42.0000 -75.4680 240° Southwest 462 532 28,900 632 Climbing FlightAware ADS-B
Thu 10:15:40 PM 41.9630 -75.5560 241° Southwest 461 531 28,900  Level FlightAware ADS-B
Thu 10:16:29 PM 41.9190 -75.6600 240° Southwest 461 531 28,900 2,114 Level FlightAware ADS-B
Thu 10:17:25 PM 41.8498 -75.8291 241° Southwest 452 520 32,600 2,739 Climbing FlightAware ADS-B
Thu 10:18:01 PM 41.8111 -75.9155 239° Southwest 450 518 33,100 896 Climbing FlightAware ADS-B
Thu 10:18:32 PM 41.7778 -75.9917 240° Southwest 447 514 33,600 968 Climbing FlightAware ADS-B
Thu 10:19:03 PM 41.7448 -76.0658 239° Southwest 451 519 34,100 1,180 Climbing FlightAware ADS-B
Thu 10:19:33 PM 41.7127 -76.1379 239° Southwest 450 518 34,800 1,475 Climbing FlightAware ADS-B
Thu 10:20:04 PM 41.6809 -76.2092 239° Southwest 446 513 35,600 1,869 Climbing FlightAware ADS-B
Thu 10:20:34 PM 41.6491 -76.2812 239° Southwest 433 498 36,700 1,672 Climbing FlightAware ADS-B
Thu 10:21:05 PM 41.6179 -76.3499 239° Southwest 431 496 37,300 1,180 Climbing FlightAware ADS-B
Thu 10:21:35 PM 41.5872 -76.4182 239° Southwest 429 494 37,900 700 Climbing FlightAware ADS-B
Thu 10:22:05 PM 41.5564 -76.4883 240° Southwest 428 493 38,000 98 Climbing FlightAware ADS-B
Thu 10:22:36 PM 41.5248 -76.5586 239° Southwest 429 494 38,000  Level FlightAware ADS-B
Thu 10:23:07 PM 41.4925 -76.6291 239° Southwest 429 494 38,000  Level FlightAware ADS-B
Thu 10:23:41 PM 41.4585 -76.7037 239° Southwest 429 494 38,000  Level FlightAware ADS-B
Thu 10:24:14 PM 41.4239 -76.7806 239° Southwest 430 495 38,000  Level FlightAware ADS-B
Thu 10:24:47 PM 41.3908 -76.8533 239° Southwest 431 496 38,000  Level FlightAware ADS-B
Thu 10:25:17 PM 41.3588 -76.9237 239° Southwest 433 498 38,000  Level FlightAware ADS-B
Thu 10:25:50 PM 41.3253 -76.9964 238° Southwest 434 499 38,000  Level FlightAware ADS-B
Thu 10:26:21 PM 41.2927 -77.0695 239° Southwest 435 501 38,000  Level FlightAware ADS-B
Thu 10:26:51 PM 41.2610 -77.1380 238° Southwest 434 499 38,000  Level FlightAware ADS-B
Thu 10:27:25 PM 41.2251 -77.2155 238° Southwest 436 502 38,000  Level FlightAware ADS-B
Thu 10:28:02 PM 41.1900 -77.2930 239° Southwest 435 501 38,000  Level FlightAware ADS-B
Thu 10:28:32 PM 41.1551 -77.3660 238° Southwest 437 503 38,000  Level FlightAware ADS-B
Thu 10:29:06 PM 41.1184 -77.4458 239° Southwest 436 502 38,000  Level FlightAware ADS-B
Thu 10:29:38 PM 41.0850 -77.5187 239° Southwest 438 504 38,000  Level FlightAware ADS-B
Thu 10:30:14 PM 41.0464 -77.6008 238° Southwest 438 504 38,000  Level FlightAware ADS-B
Thu 10:31:02 PM 40.9952 -77.7103 238° Southwest 438 504 38,000  Level FlightAware ADS-B
Thu 10:31:52 PM 40.9460 -77.8170 239° Southwest 437 503 38,000  Level FlightAware ADS-B
Thu 10:32:32 PM 40.9040 -77.9030 237° Southwest 438 504 38,000  Level FlightAware ADS-B
Thu 10:33:17 PM 40.8540 -78.0100 238° Southwest 439 505 38,000  Level FlightAware ADS-B
Thu 10:33:57 PM 40.8110 -78.1010 238° Southwest 438 504 38,000  Level FlightAware ADS-B
Thu 10:34:42 PM 40.7630 -78.2040 238° Southwest 439 505 38,000  Level FlightAware ADS-B
Thu 10:35:22 PM 40.7200 -78.2920 237° Southwest 440 506 38,000  Level FlightAware ADS-B
Thu 10:36:02 PM 40.6760 -78.3830 238° Southwest 439 505 38,000  Level FlightAware ADS-B
Thu 10:36:45 PM 40.6320 -78.4750 238° Southwest 440 506 38,000  Level FlightAware ADS-B
Thu 10:37:27 PM 40.5840 -78.5750 238° Southwest 440 506 38,000  Level FlightAware ADS-B
Thu 10:38:22 PM 40.5250 -78.6980 238° Southwest 441 507 38,000  Level FlightAware ADS-B
Thu 10:39:07 PM 40.4760 -78.7990 237° Southwest 439 505 38,000  Level FlightAware ADS-B
Thu 10:39:47 PM 40.4320 -78.8910 238° Southwest 439 505 38,000  Level FlightAware ADS-B
Thu 10:40:28 PM 40.3840 -78.9900 238° Southwest 440 506 38,000  Level FlightAware ADS-B
Thu 10:41:13 PM 40.3340 -79.0910 237° Southwest 440 506 38,000  Level FlightAware ADS-B
Thu 10:41:55 PM 40.2870 -79.1870 237° Southwest 439 505 38,000  Level FlightAware ADS-B
Thu 10:42:35 PM 40.2430 -79.2760 237° Southwest 438 504 38,000  Level FlightAware ADS-B
Thu 10:43:21 PM 40.1930 -79.3770 237° Southwest 438 504 38,000  Level FlightAware ADS-B
Thu 10:44:01 PM 40.1490 -79.4680 238° Southwest 438 504 38,000  Level FlightAware ADS-B
Thu 10:44:41 PM 40.1040 -79.5560 236° Southwest 436 502 38,000  Level FlightAware ADS-B
Thu 10:44:57 PM 40.0870 -79.5920 238° Southwest 436 502 38,000  Level FlightAware ADS-B
Thu 10:48:10 PM 39.8850 -79.9940 237° Southwest 438 504 38,000  Level FlightAware ADS-B
Thu 10:48:53 PM 39.8270 -80.1080 237° Southwest 436 502 38,000  Level FlightAware ADS-B
Thu 10:49:37 PM 39.7790 -80.2040 237° Southwest 433 498 38,000  Level FlightAware ADS-B
Thu 10:50:13 PM 39.7390 -80.2820 236° Southwest 432 497 38,000  Level FlightAware ADS-B
Thu 10:51:00 PM 39.6860 -80.3860 237° Southwest 431 496 38,000  Level FlightAware ADS-B
Thu 10:51:42 PM 39.6400 -80.4760 236° Southwest 430 495 38,000  Level FlightAware ADS-B
Thu 10:52:22 PM 39.5950 -80.5640 236° Southwest 427 491 38,000  Level FlightAware ADS-B
Thu 10:53:06 PM 39.5480 -80.6550 236° Southwest 426 490 38,000  Level FlightAware ADS-B
Thu 10:53:46 PM 39.5050 -80.7400 237° Southwest 424 488 38,000  Level FlightAware ADS-B
Thu 10:54:25 PM 39.4630 -80.8200 236° Southwest 424 488 38,000  Level FlightAware ADS-B
Thu 10:55:08 PM 39.4140 -80.9130 236° Southwest 426 490 38,000  Level FlightAware ADS-B
Thu 10:55:51 PM 39.3670 -81.0050 237° Southwest 431 496 38,000  Level FlightAware ADS-B
Thu 10:56:34 PM 39.3180 -81.0990 236° Southwest 434 499 38,000  Level FlightAware ADS-B
Thu 10:57:15 PM 39.2740 -81.1820 236° Southwest 435 501 38,000  Level FlightAware ADS-B
Thu 10:57:59 PM 39.2240 -81.2800 237° Southwest 438 504 38,000  Level FlightAware ADS-B
Thu 10:58:40 PM 39.1760 -81.3710 236° Southwest 440 506 38,000  Level FlightAware ADS-B
Thu 10:59:21 PM 39.1310 -81.4550 235° Southwest 441 507 38,000  Level FlightAware ADS-B
Thu 10:59:57 PM 39.0870 -81.5380 236° Southwest 441 507 38,000  Level FlightAware ADS-B
Thu 11:03:18 PM 38.8530 -81.9750 236° Southwest 452 520 38,000  Level FlightAware ADS-B
Thu 11:04:00 PM 38.8040 -82.0680 236° Southwest 455 524 38,000  Level FlightAware ADS-B
Thu 11:04:45 PM 38.7500 -82.1680 235° Southwest 457 526 38,000  Level FlightAware ADS-B
Thu 11:05:25 PM 38.7010 -82.2600 236° Southwest 460 529 38,000  Level FlightAware ADS-B
Thu 11:06:04 PM 38.6540 -82.3450 235° Southwest 460 529 38,000  Level FlightAware ADS-B
Thu 11:06:46 PM 38.6030 -82.4390 235° Southwest 459 528 38,000  Level FlightAware ADS-B
Thu 11:07:30 PM 38.5490 -82.5390 235° Southwest 456 525 38,000  Level FlightAware ADS-B
Thu 11:08:14 PM 38.4980 -82.6310 235° Southwest 452 520 38,000  Level FlightAware ADS-B
Thu 11:08:56 PM 38.4470 -82.7250 235° Southwest 448 516 38,000  Level FlightAware ADS-B
Thu 11:09:36 PM 38.3990 -82.8130 235° Southwest 444 511 38,000  Level FlightAware ADS-B
Thu 11:10:13 PM 38.3570 -82.8880 234° Southwest 442 509 38,000  Level FlightAware ADS-B
Thu 11:10:31 PM 38.3338 -82.9305 235° Southwest 442 509 38,000  Level FlightAware ADS-B
Thu 11:11:02 PM 38.2978 -82.9963 235° Southwest 441 507 38,000  Level FlightAware ADS-B
Thu 11:11:39 PM 38.2540 -83.0750 235° Southwest 440 506 38,000  Level FlightAware ADS-B
Thu 11:12:23 PM 38.2040 -83.1660 235° Southwest 440 506 38,000  Level FlightAware ADS-B
Thu 11:13:03 PM 38.1560 -83.2520 235° Southwest 440 506 38,000  Level FlightAware ADS-B
Thu 11:13:48 PM 38.1050 -83.3430 235° Southwest 441 507 38,000  Level FlightAware ADS-B
Thu 11:14:27 PM 38.0650 -83.4120 234° Southwest 441 507 38,000  Level FlightAware ADS-B
Thu 11:15:27 PM 37.9850 -83.5562 235° Southwest 443 510 38,000  Level FlightAware ADS-B
Thu 11:18:00 PM 37.8030 -83.8780 234° Southwest 451 519 38,000  Level FlightAware ADS-B
Thu 11:18:37 PM 37.7640 -83.9450 234° Southwest 451 519 38,000  Level FlightAware ADS-B
Thu 11:19:24 PM 37.7150 -84.0300 234° Southwest 451 519 38,000  Level FlightAware ADS-B
Thu 11:20:08 PM 37.6450 -84.1550 235° Southwest 454 522 38,000  Level FlightAware ADS-B
Thu 11:20:48 PM 37.5950 -84.2410 234° Southwest 455 524 38,000  Level FlightAware ADS-B
Thu 11:21:43 PM 37.5290 -84.3540 234° Southwest 455 524 38,000  Level FlightAware ADS-B
Thu 11:22:07 PM 37.4958 -84.4124 234° Southwest 455 524 38,000  Level FlightAware ADS-B
Thu 11:22:38 PM 37.4578 -84.4788 234° Southwest 456 525 38,000  Level FlightAware ADS-B
Thu 11:23:09 PM 37.4188 -84.5452 234° Southwest 455 524 38,000  Level FlightAware ADS-B
Thu 11:23:42 PM 37.3783 -84.6158 234° Southwest 457 526 38,000  Level FlightAware ADS-B
Thu 11:24:13 PM 37.3401 -84.6800 233° Southwest 457 526 38,000  Level FlightAware ADS-B
Thu 11:24:45 PM 37.2999 -84.7485 234° Southwest 458 527 38,000  Level FlightAware ADS-B
Thu 11:25:15 PM 37.2619 -84.8150 234° Southwest 459 528 38,000  Level FlightAware ADS-B
Thu 11:25:45 PM 37.2240 -84.8793 234° Southwest 459 528 38,000  Level FlightAware ADS-B
Thu 11:26:16 PM 37.1853 -84.9456 234° Southwest 459 528 38,000  Level FlightAware ADS-B
Thu 11:26:48 PM 37.1453 -85.0141 234° Southwest 459 528 38,000  Level FlightAware ADS-B
Thu 11:27:19 PM 37.1064 -85.0783 233° Southwest 459 528 38,000  Level FlightAware ADS-B
Thu 11:27:51 PM 37.0658 -85.1489 234° Southwest 458 527 38,000  Level FlightAware ADS-B
Thu 11:28:27 PM 37.0203 -85.2257 233° Southwest 458 527 38,000  Level FlightAware ADS-B
Thu 11:29:00 PM 36.9790 -85.2939 233° Southwest 459 528 38,000  Level FlightAware ADS-B
Thu 11:30:03 PM 36.8985 -85.4300 234° Southwest 459 528 38,000  Level FlightAware ADS-B
Thu 11:30:35 PM 36.8584 -85.4980 234° Southwest 459 528 38,000  Level FlightAware ADS-B
Thu 11:31:13 PM 36.8097 -85.5785 233° Southwest 459 528 38,000  Level FlightAware ADS-B
Thu 11:31:49 PM 36.7644 -85.6547 233° Southwest 458 527 38,000  Level FlightAware ADS-B
Thu 11:32:19 PM 36.7265 -85.7181 233° Southwest 458 527 38,000  Level FlightAware ADS-B
Thu 11:32:50 PM 36.6876 -85.7814 233° Southwest 457 526 38,000  Level FlightAware ADS-B
Thu 11:33:20 PM 36.6493 -85.8445 233° Southwest 457 526 38,000  Level FlightAware ADS-B
Thu 11:33:52 PM 36.6087 -85.9120 233° Southwest 458 527 38,000  Level FlightAware ADS-B
Thu 11:34:33 PM 36.5557 -86.0005 233° Southwest 459 528 38,000  Level FlightAware ADS-B
Thu 11:35:46 PM 36.4630 -86.1520 233° Southwest 459 528 38,000  Level FlightAware ADS-B
Thu 11:36:26 PM 36.4110 -86.2380 233° Southwest 461 531 38,000  Level FlightAware ADS-B
Thu 11:37:06 PM 36.3620 -86.3180 233° Southwest 460 529 38,000  Level FlightAware ADS-B
Thu 11:37:39 PM 36.3177 -86.3897 233° Southwest 460 529 38,000  Level FlightAware ADS-B
Thu 11:38:10 PM 36.2779 -86.4547 233° Southwest 460 529 38,000  Level FlightAware ADS-B
Thu 11:38:43 PM 36.2354 -86.5238 233° Southwest 460 529 38,000  Level FlightAware ADS-B
Thu 11:39:14 PM 36.1950 -86.5890 232° Southwest 459 528 38,000  Level FlightAware ADS-B
Thu 11:39:24 PM 36.1817 -86.6117 234° Southwest 460 529 38,000  Level FlightAware ADS-B
Thu 11:39:54 PM 36.1450 -86.6760 235° Southwest 454 522 38,000  Level FlightAware ADS-B
Thu 11:40:33 PM 36.1105 -86.7662 245° Southwest 449 517 38,000  Level FlightAware ADS-B
Thu 11:41:09 PM 36.0835 -86.8495 248° West 448 516 38,000  Level FlightAware ADS-B
Thu 11:41:40 PM 36.0603 -86.9236 249° West 449 517 38,000  Level FlightAware ADS-B
Thu 11:42:16 PM 36.0325 -87.0121 249° West 450 518 38,000  Level FlightAware ADS-B
Thu 11:42:47 PM 36.0096 -87.0836 248° West 449 517 38,000  Level FlightAware ADS-B
Thu 11:43:19 PM 35.9847 -87.1623 249° West 449 517 38,000  Level FlightAware ADS-B
Thu 11:44:09 PM 35.9464 -87.2809 248° West 448 516 38,000 -129 Level FlightAware ADS-B
Thu 11:44:52 PM 35.9140 -87.3800 248° West 446 513 37,800 -723 Descending FlightAware ADS-B
Thu 11:45:32 PM 35.8830 -87.4780 249° West 449 517 37,000 -1,215 Descending FlightAware ADS-B
Thu 11:46:11 PM 35.8540 -87.5660 248° West 454 522 36,200 -1,172 Descending FlightAware ADS-B
Thu 11:46:59 PM 35.8150 -87.6840 248° West 456 525 35,300 -837 Descending FlightAware ADS-B
Thu 11:47:37 PM 35.7860 -87.7730 248° West 455 524 35,000 -842 Descending FlightAware ADS-B
Thu 11:48:53 PM 35.7290 -87.9470 248° West 451 519 33,700 -709 Descending FlightAware ADS-B
Thu 11:49:27 PM 35.7060 -88.0160 248° West 451 519 33,700  Level FlightAware ADS-B
Thu 11:50:17 PM 35.6730 -88.1170 248° West 451 519 33,700  Level FlightAware ADS-B
Thu 11:50:53 PM 35.6490 -88.1900 248° West 451 519 33,700  Level FlightAware ADS-B
Thu 11:51:54 PM 35.6090 -88.3130 248° West 451 519 33,700  Level FlightAware ADS-B
Thu 11:52:28 PM 35.5860 -88.3820 248° West 451 519 33,700  Level FlightAware ADS-B
Thu 11:53:14 PM 35.5560 -88.4750 248° West 451 519 33,700  Level FlightAware ADS-B
Thu 11:53:50 PM 35.5320 -88.5480 248° West 451 519 33,700  Level FlightAware ADS-B
Thu 11:54:38 PM 35.5000 -88.6450 248° West 451 519 33,700  Level FlightAware ADS-B
Thu 11:55:17 PM 35.4740 -88.7240 248° West 451 519 33,700  Level FlightAware ADS-B
Thu 11:56:05 PM 35.4420 -88.8200 248° West 451 519 33,700  Level FlightAware ADS-B
Thu 11:56:41 PM 35.4180 -88.8930 248° West 451 519 33,700  Level FlightAware ADS-B
Thu 11:57:30 PM 35.3850 -88.9920 248° West 451 519 33,700  Level FlightAware ADS-B
Thu 11:58:06 PM 35.3610 -89.0650 248° West 451 519 33,700 -20,559 Level FlightAware ADS-B
Thu 11:58:38 PM 35.0875 -88.9994 248° West 348 400 10,400 -15,652 Descending Memphis Center
Thu 11:59:38 PM 35.0383 -89.0789 233° Southwest 317 365 9,700 -950 Descending Memphis Center
Fri 12:00:38 AM 35.0350 -89.1778 268° West 270 311 8,500 -1,100 Descending Memphis Center
Fri 12:01:38 AM 35.0400 -89.2614 274° West 265 305 7,500 -1,150 Descending Memphis Center
Fri 12:02:38 AM 35.0428 -89.3400 272° West 246 283 6,200 -700 Descending Memphis Center
Fri 12:03:38 AM 35.0433 -89.4211 271° West 246 283 6,100 -450 Descending Memphis Center
Fri 12:04:38 AM 35.0481 -89.5022 274° West 240 276 5,300 -900 Descending Memphis Center
Fri 12:05:38 AM 35.0486 -89.5808 271° West 235 270 4,300 -1,000 Descending Memphis Center
Fri 12:06:38 AM 35.0492 -89.6594 271° West 230 265 3,300 -650 Descending Memphis Center
Fri 12:07:38 AM 35.0536 -89.7356 274° West 235 270 3,000 -200 Descending Memphis Center
Fri 12:08:38 AM 35.0542 -89.8067 271° West 224 258 2,900 -550 Descending Memphis Center
Fri 12:09:38 AM 35.0564 -89.8700 272° West 210 242 1,900 -900 Descending Memphis Center
Fri 12:10:38 AM 35.0586 -89.9156 273° West 160 184 1,100 -750 Descending Memphis Center
Fri 12:11:38 AM 35.0589 -89.9589 270° West 130 150 400 -700 Descending Memphis Center
Fri 12:13:00 AM 35.0333 -89.9667 270° West  Level FlightAware Approximate
Fri 12:20:00 AM 35.0424 -89.9767 270° West  Level Estimated
Fri 12:21:00 AM 35.0424 -89.9767 270° West  Level Estimated
Fri 12:22:00 AM 35.0424 -89.9767 270° West  Level Estimated
Fri 12:23:00 AM 35.0424 -89.9767 270° West  Level Estimated
Fri 12:24:00 AM 35.0424 -89.9767 270° West  Level Estimated
Fri 12:25:00 AM 35.0424 -89.9767 270° West  Level Estimated
Fri 12:26:00 AM 35.0424 -89.9767 270° West  Level Estimated
Fri 12:27:00 AM 35.0424 -89.9767 270° West  Level Estimated

Login

Don't have an account? Register now (free) for customized features, flight alerts, and more!